Estación Meteorológica Peña el Pijo (Robertgarden) [ 02/03/23 04:07:22 CET ]

Fecha Hora Presion(HPa) Temp (°C) Humedad % Rocio (°C) Viento ( m/s) Direccion Lluvia 1Hora(mm) Lluvia 24H(mm) LLuvia Total(mm)
2010-Sep-02 01:01:15 1008.200 17.5 73 12.6         152.29
2010-Sep-02 02:01:20 1007.900 16.3 77 12.3         152.29
2010-Sep-02 03:01:17 1008.100 15.5 81 12.3         152.29
2010-Sep-02 04:01:19 1007.700 15.8 81 12.6         152.29
2010-Sep-02 05:01:15 1008.100 15.6 81 12.4         152.29
2010-Sep-02 06:01:15 1007.800 14.7 84 12.0         152.29
2010-Sep-02 07:01:14 1008.000 13.9 86 11.6         152.29
2010-Sep-02 08:01:14 1008.500 13.3 88 11.3         152.29
2010-Sep-02 09:01:17 1008.600 15.9 86 13.6         152.29
2010-Sep-02 10:01:18 1008.700 20.6 71 15.2         152.29
2010-Sep-02 11:01:15 1009.300 21.8 64 14.7         152.29
2010-Sep-02 12:01:16 1009.500 23.6 59 15.1         152.29
2010-Sep-02 13:01:18 1009.400 25.7 53 15.4         152.29
2010-Sep-02 14:01:15 1009.000 26.4 47 14.1         152.29
2010-Sep-02 15:01:16 1009.100 23.4 53 13.2 2.3 NE     152.29
2010-Sep-02 16:01:18 1009.500 21.9 61 14.0         152.29
2010-Sep-02 17:01:34 1009.300 23.1 56 13.8         152.29
2010-Sep-02 18:01:34 1009.700 21.1 68 14.9         152.29
2010-Sep-02 19:01:40 1010.600 17.2 82 14.1     2.07 2.07 154.36
2010-Sep-02 20:01:34 1011.000 17.0 88 15.0     1.03 3.62 155.91
2010-Sep-02 21:01:15 1011.500 16.4 89 14.6       3.62 155.91
2010-Sep-02 22:01:14 1012.200 15.8 90 14.2       3.62 155.91
2010-Sep-02 23:01:20 1012.600 14.9 91 13.5       3.62 155.91

Temperatura Máxima:26°    Temperatura Mínima:13°
Presión Máxima:1012.600 Hpa    Presión Mínima:1007.700 Hpa


Volver